Flugplatz Braunschweig Wolfsburg

Bericht für EDVE

vom 22.09. um 07:50 UTC

variable Windrichtung mit 2 kt

Sichtweite 10 km oder mehr

gute Sicht, keine Wolken < 5000 ft, keine CB, keine Wettererscheinungen (CAVOK)

Temperatur 17.0°C

Taupunkt 10.0°C

Luftfeuchtigkeit 63%

Luftdruck 1011 hPa

EDVE 220750Z VRB02KT CAVOK 17/10 Q1011

Prognose für EDVE

vom 22.09. um 05:36 UTC

Zwischen 06:00 UTC und 09:00 UTC

Wind 4 kt aus 90°

Sichtweite 10 km oder mehr

keine signifikanten Wettererscheinungen

keine Wolken


Zwischen 09:00 und 11:00 UTC übergehend zu

Wind 5 kt aus 210°

Sichtweite 10 km oder mehr

keine signifikanten Wettererscheinungen

keine Wolken

TAF EDVE 220536Z 2206/2215 09004KT CAVOK BECMG 2209/2211 21005KT
Impressum